Meadows Of Dan, Virginia
Current Conditions -  °F | °C
As of 11:15 PM on Sunday 25 Jan 2015 (Local Time) from KMWK Reporting Station
Overcast Overcast  
Wind Chill: 46°   Ceiling: 9000
Heat Index: 46°   Visibility: 10mi
Dew Point: 33°   Wind: 3mph
Humidity: 60%   Direction: 170°S
Pressure: 29.75"   Gusts: NA
Location:  36.74°N, 80.39°W
Report Text: KMWK 260415Z AUTO 17003KT 10SM BKN090 OVC110 08/01 A2975 RMK AO2 T00800006
Loading
Personal Weather Stations






























Interactive Weather Map New forecast layout! Learn more

10-Day Weather Forecast

Advertisements
Track Severe Weather on mobile